Time;durP1;ratioP1;P1;durP2;ratioP2;P2;SDS_P1;SDS_P2;PMS_P1;PMS_P2;Temp;Humidity;BMP_temperature;BMP_pressure;BME280_temperature;BME280_humidity;BME280_pressure;Samples;Min_cycle;Max_cycle;Signal;HPM_P1;HPM_P2
2023/01/27 00:01:07;;;;;;;6.35;5.25;;;;;;;3.15;100.00;102708.09;4926313;29;20452;-79
2023/01/27 00:03:35;;;;;;;7.13;4.70;;;;;;;3.15;100.00;102706.41;4922248;28;20067;-79
2023/01/27 00:06:05;;;;;;;8.18;4.70;;;;;;;3.15;100.00;102703.78;4930977;29;20039;-79
2023/01/27 00:08:33;;;;;;;6.22;4.65;;;;;;;3.17;100.00;102698.69;4924636;29;20046;-79
2023/01/27 00:13:47;;;;;;;4.78;3.92;;;;;;;3.18;100.00;102703.09;4937778;29;20039;-79
2023/01/27 00:16:14;;;;;;;5.82;3.70;;;;;;;3.19;100.00;102702.28;4917460;29;20051;-79
2023/01/27 00:18:42;;;;;;;4.57;3.53;;;;;;;3.20;100.00;102702.38;4914245;29;20048;-79
2023/01/27 00:26:41;;;;;;;6.07;3.60;;;;;;;3.22;100.00;102712.91;4902711;29;20040;-79
2023/01/27 00:29:08;;;;;;;6.22;3.60;;;;;;;3.23;100.00;102710.41;4936465;29;20058;-79
2023/01/27 00:34:23;;;;;;;4.43;3.20;;;;;;;3.25;100.00;102713.09;4928772;28;20047;-79
2023/01/27 00:36:50;;;;;;;7.38;3.83;;;;;;;3.26;100.00;102709.69;4935664;29;20548;-81
2023/01/27 00:39:17;;;;;;;4.35;3.47;;;;;;;3.28;100.00;102724.59;4918923;29;20044;-80
2023/01/27 00:41:44;;;;;;;3.83;3.47;;;;;;;3.29;100.00;102718.59;4901609;29;20047;-80
2023/01/27 00:44:12;;;;;;;6.20;3.55;;;;;;;3.31;100.00;102716.09;4940238;29;20043;-80
2023/01/27 00:46:41;;;;;;;6.10;4.18;;;;;;;3.32;100.00;102717.88;4948991;29;20066;-80
2023/01/27 00:49:12;;;;;;;6.05;3.90;;;;;;;3.32;100.00;102713.56;4914044;29;20060;-80
2023/01/27 00:51:41;;;;;;;4.43;3.95;;;;;;;3.34;100.00;102731.00;4949755;29;20056;-81
2023/01/27 00:54:08;;;;;;;6.22;3.90;;;;;;;3.35;100.00;102722.41;4932347;29;20060;-79
2023/01/27 00:56:37;;;;;;;5.03;4.03;;;;;;;3.37;100.00;102741.66;4926402;28;20066;-79
2023/01/27 00:59:05;;;;;;;4.68;3.88;;;;;;;3.35;100.00;102725.91;4954264;29;20073;-79
2023/01/27 01:01:32;;;;;;;8.05;4.65;;;;;;;3.36;100.00;102726.78;4939924;29;20063;-79
2023/01/27 01:04:00;;;;;;;5.00;4.15;;;;;;;3.37;100.00;102731.22;4925003;28;20044;-79
2023/01/27 01:06:28;;;;;;;4.85;3.30;;;;;;;3.37;100.00;102728.59;4945968;29;20059;-79
2023/01/27 01:08:56;;;;;;;4.40;3.38;;;;;;;3.35;100.00;102728.50;4943700;29;20051;-79
2023/01/27 01:11:25;;;;;;;6.40;2.60;;;;;;;3.34;100.00;102737.13;4936096;29;20070;-78
2023/01/27 01:13:52;;;;;;;6.07;3.00;;;;;;;3.35;100.00;102740.66;4914307;29;20063;-79
2023/01/27 01:16:24;;;;;;;7.72;3.03;;;;;;;3.33;100.00;102732.72;4920781;29;20104;-79
2023/01/27 01:18:52;;;;;;;7.13;3.00;;;;;;;3.34;100.00;102731.00;4913995;28;20047;-79
2023/01/27 01:21:20;;;;;;;3.63;2.13;;;;;;;3.33;100.00;102753.56;4920858;29;20055;-79
2023/01/27 01:23:48;;;;;;;2.30;1.88;;;;;;;3.34;100.00;102759.69;4929801;29;20052;-79
2023/01/27 01:26:17;;;;;;;6.13;2.50;;;;;;;3.34;100.00;102747.53;4936797;29;20047;-79
2023/01/27 01:28:45;;;;;;;5.18;1.70;;;;;;;3.37;100.00;102752.97;4880866;29;20063;-79
2023/01/27 01:31:16;;;;;;;4.43;2.00;;;;;;;3.38;100.00;102759.94;4933138;29;20054;-79
2023/01/27 01:33:45;;;;;;;4.03;1.85;;;;;;;3.39;100.00;102758.28;4896184;28;20066;-79
2023/01/27 01:36:16;;;;;;;3.40;1.83;;;;;;;3.39;100.00;102766.97;4958532;28;20047;-79
2023/01/27 01:38:43;;;;;;;5.03;1.80;;;;;;;3.40;100.00;102762.66;4950351;29;20058;-80
2023/01/27 01:41:16;;;;;;;1.88;1.65;;;;;;;3.40;100.00;102760.06;4932623;29;20048;-79
2023/01/27 01:43:44;;;;;;;2.78;1.90;;;;;;;3.39;100.00;102769.59;4923359;29;20058;-78
2023/01/27 01:46:12;;;;;;;3.13;1.40;;;;;;;3.40;100.00;102770.47;4929932;29;20091;-79
2023/01/27 01:48:42;;;;;;;2.88;1.63;;;;;;;3.39;100.00;102766.97;4950018;28;20043;-78
2023/01/27 01:51:12;;;;;;;6.40;1.65;;;;;;;3.41;100.00;102767.09;4933866;28;20070;-79
2023/01/27 01:53:54;;;;;;;3.55;1.38;;;;;;;3.41;100.00;102759.28;4946685;28;20058;-80
2023/01/27 01:56:34;;;;;;;1.80;1.40;;;;;;;3.41;100.00;102770.59;4950025;29;20382;-80
2023/01/27 01:59:07;;;;;;;1.52;1.35;;;;;;;3.44;100.00;102780.28;4923495;29;20610;-80
2023/01/27 02:01:35;;;;;;;4.47;1.63;;;;;;;3.43;100.00;102778.50;4950359;29;20086;-80
2023/01/27 02:04:07;;;;;;;3.47;1.70;;;;;;;3.43;100.00;102776.78;4942921;29;20055;-80
2023/01/27 02:06:42;;;;;;;1.27;1.17;;;;;;;3.44;100.00;102778.59;4928578;28;20054;-80
2023/01/27 02:09:10;;;;;;;2.53;1.40;;;;;;;3.43;100.00;102774.19;4928355;29;20055;-80
2023/01/27 02:11:37;;;;;;;1.98;1.65;;;;;;;3.44;100.00;102781.22;4944947;29;20051;-79
2023/01/27 02:14:12;;;;;;;5.50;1.20;;;;;;;3.43;100.00;102774.19;4927356;28;20411;-80
2023/01/27 02:16:39;;;;;;;2.85;1.45;;;;;;;3.43;100.00;102763.75;4949211;29;20051;-80
2023/01/27 02:19:18;;;;;;;3.63;1.65;;;;;;;3.44;100.00;102781.22;4933499;29;20044;-80
2023/01/27 02:21:49;;;;;;;3.33;1.52;;;;;;;3.43;100.00;102773.28;4927103;28;20046;-80
2023/01/27 02:24:16;;;;;;;3.75;1.40;;;;;;;3.43;100.00;102775.91;4940868;28;20055;-80
2023/01/27 02:26:45;;;;;;;3.03;1.25;;;;;;;3.42;100.00;102774.09;4909918;29;20071;-79
2023/01/27 02:29:14;;;;;;;3.40;1.42;;;;;;;3.42;100.00;102781.91;4931226;29;20062;-80
2023/01/27 02:31:42;;;;;;;4.73;1.63;;;;;;;3.41;100.00;102781.00;4948983;29;20895;-80
2023/01/27 02:34:13;;;;;;;4.35;1.80;;;;;;;3.40;100.00;102779.19;4948663;29;20059;-79
2023/01/27 02:36:49;;;;;;;4.38;1.67;;;;;;;3.38;100.00;102778.19;4926968;28;20051;-79
2023/01/27 02:39:19;;;;;;;2.38;1.50;;;;;;;3.36;100.00;102774.59;4946301;29;20047;-80
2023/01/27 02:41:48;;;;;;;;;;;;;;;3.36;100.00;102777.19;4942772;29;20070;-79
2023/01/27 02:44:16;;;;;;;3.22;1.42;;;;;;;3.36;100.00;102786.72;4932605;28;19926;-79
2023/01/27 02:46:43;;;;;;;1.83;1.40;;;;;;;3.36;100.00;102771.09;4935757;29;20652;-79
2023/01/27 02:49:11;;;;;;;3.92;1.63;;;;;;;3.34;100.00;102771.00;4940123;29;20047;-79
2023/01/27 02:51:38;;;;;;;3.25;1.50;;;;;;;3.32;100.00;102767.38;4943502;28;20054;-80
2023/01/27 02:54:06;;;;;;;2.10;1.30;;;;;;;3.30;100.00;102785.53;4949340;29;20128;-78
2023/01/27 02:56:34;;;;;;;3.63;1.25;;;;;;;3.31;100.00;102769.09;4959112;28;20039;-79
2023/01/27 02:59:02;;;;;;;5.68;1.35;;;;;;;3.32;100.00;102775.22;4948912;29;20393;-78
2023/01/27 03:01:35;;;;;;;1.50;1.20;;;;;;;3.32;100.00;102780.41;4912287;28;20042;-79
2023/01/27 03:04:02;;;;;;;1.42;1.33;;;;;;;3.33;100.00;102774.41;4945019;28;20050;-80
2023/01/27 03:06:30;;;;;;;3.50;1.15;;;;;;;3.32;100.00;102791.75;4951159;28;20055;-79
2023/01/27 03:08:57;;;;;;;8.85;1.70;;;;;;;3.32;100.00;102793.44;4921517;28;20062;-80
2023/01/27 03:14:11;;;;;;;5.80;1.20;;;;;;;3.32;100.00;102790.84;4948612;28;20046;-79
2023/01/27 03:19:25;;;;;;;4.28;1.40;;;;;;;3.29;100.00;102796.78;4949344;28;20031;-80
2023/01/27 03:21:53;;;;;;;3.70;1.58;;;;;;;3.28;100.00;102794.06;4950961;28;20074;-80
2023/01/27 03:24:22;;;;;;;2.13;1.13;;;;;;;3.28;100.00;102805.38;4927648;28;20050;-80
2023/01/27 03:26:53;;;;;;;2.70;1.30;;;;;;;3.27;100.00;102805.28;4935531;28;20058;-79
2023/01/27 03:32:14;;;;;;;3.05;1.55;;;;;;;3.25;100.00;102796.47;4950809;29;20050;-79
2023/01/27 03:34:52;;;;;;;4.63;1.40;;;;;;;3.22;100.00;102805.00;4949782;28;20370;-80
2023/01/27 03:48:36;;;;;;;4.95;1.40;;;;;;;3.19;100.00;102815.22;4963240;28;20050;-81
2023/01/27 03:51:06;;;;;;;3.42;1.30;;;;;;;3.19;100.00;102816.91;4952787;28;20042;-80
2023/01/27 03:53:34;;;;;;;3.03;1.30;;;;;;;3.16;100.00;102824.53;4924411;28;20051;-80
2023/01/27 03:56:04;;;;;;;3.63;1.30;;;;;;;3.13;100.00;102825.22;4955183;28;20046;-80
2023/01/27 03:58:34;;;;;;;1.60;1.40;;;;;;;3.12;100.00;102819.13;4957613;28;20412;-78
2023/01/27 04:01:04;;;;;;;3.40;1.67;;;;;;;3.11;100.00;102817.31;4949168;29;20076;-79
2023/01/27 04:09:19;;;;;;;3.03;1.73;;;;;;;3.08;100.00;102808.41;4959150;28;20047;-79
2023/01/27 04:11:57;;;;;;;4.85;1.67;;;;;;;3.08;100.00;102811.94;4930863;28;20543;-80
2023/01/27 04:14:24;;;;;;;2.97;1.67;;;;;;;3.08;100.00;102804.09;4950924;28;20059;-80
2023/01/27 04:16:55;;;;;;;3.72;1.83;;;;;;;3.09;100.00;102803.28;4941265;28;20468;-80
2023/01/27 04:19:22;;;;;;;2.15;1.40;;;;;;;3.08;100.00;102811.00;4932390;28;20420;-80
2023/01/27 04:21:50;;;;;;;5.10;2.05;;;;;;;3.08;100.00;102824.03;4937843;28;20057;-80
2023/01/27 04:24:21;;;;;;;4.80;2.03;;;;;;;3.07;100.00;102820.53;4951247;29;20055;-80
2023/01/27 04:26:55;;;;;;;2.80;1.85;;;;;;;3.07;100.00;102820.53;4944156;28;20054;-79
2023/01/27 04:29:25;;;;;;;4.38;1.95;;;;;;;3.06;100.00;102818.75;4971815;28;20058;-79
2023/01/27 04:31:54;;;;;;;4.63;2.25;;;;;;;3.06;100.00;102808.31;4966312;28;20039;-80
2023/01/27 04:34:24;;;;;;;3.92;2.05;;;;;;;3.06;100.00;102807.41;4929443;29;20055;-80
2023/01/27 04:36:53;;;;;;;4.00;1.80;;;;;;;3.06;100.00;102813.53;4966462;28;20038;-80
2023/01/27 04:39:20;;;;;;;3.78;1.90;;;;;;;3.08;100.00;102813.59;4951707;28;20047;-79
2023/01/27 04:41:48;;;;;;;3.47;1.70;;;;;;;3.07;100.00;102804.00;4942829;28;20063;-80
2023/01/27 04:44:19;;;;;;;5.60;2.00;;;;;;;3.07;100.00;102810.09;4926626;28;20062;-80
2023/01/27 04:46:46;;;;;;;4.95;1.75;;;;;;;3.07;100.00;102814.41;4944792;28;20541;-81
2023/01/27 04:49:14;;;;;;;4.30;1.67;;;;;;;3.07;100.00;102815.31;4932634;28;20043;-78
2023/01/27 04:51:41;;;;;;;4.97;1.55;;;;;;;3.07;100.00;102823.13;4949579;28;20058;-80
2023/01/27 04:54:15;;;;;;;3.70;1.50;;;;;;;3.09;100.00;102828.44;4943471;28;20054;-80
2023/01/27 04:56:57;;;;;;;1.88;1.35;;;;;;;3.07;100.00;102830.94;4939885;28;20043;-79
2023/01/27 04:59:25;;;;;;;2.30;1.48;;;;;;;3.10;100.00;102832.84;4959720;28;20377;-80
2023/01/27 05:01:53;;;;;;;4.72;1.50;;;;;;;3.09;100.00;102821.53;4949562;28;20046;-79
2023/01/27 05:04:20;;;;;;;2.55;1.50;;;;;;;3.09;100.00;102834.56;4929226;28;20424;-80
2023/01/27 05:06:48;;;;;;;3.55;1.90;;;;;;;3.07;100.00;102823.13;4927878;28;20907;-81
2023/01/27 05:09:15;;;;;;;3.40;1.58;;;;;;;3.08;100.00;102827.56;4921388;29;20055;-80
2023/01/27 05:11:42;;;;;;;1.77;1.40;;;;;;;3.08;100.00;102837.03;4925129;28;20057;-79
2023/01/27 05:14:10;;;;;;;1.42;1.10;;;;;;;3.08;100.00;102840.56;4968440;28;20059;-80
2023/01/27 05:16:37;;;;;;;2.38;1.10;;;;;;;3.08;100.00;102843.19;4966021;28;20046;-80
2023/01/27 05:19:06;;;;;;;2.33;1.30;;;;;;;3.08;100.00;102845.78;4946461;28;20067;-79
2023/01/27 05:21:33;;;;;;;2.75;1.15;;;;;;;3.08;100.00;102853.59;4930262;28;20062;-80
2023/01/27 05:24:01;;;;;;;2.67;1.25;;;;;;;3.08;100.00;102851.00;4922420;29;20059;-80
2023/01/27 05:26:28;;;;;;;2.03;1.33;;;;;;;3.09;100.00;102849.28;4937229;28;20047;-81
2023/01/27 05:28:57;;;;;;;3.45;1.55;;;;;;;3.08;100.00;102847.47;4952006;28;20058;-78
2023/01/27 05:31:27;;;;;;;2.45;1.20;;;;;;;3.07;100.00;102851.78;4949171;28;20051;-79
2023/01/27 05:33:57;;;;;;;1.42;1.23;;;;;;;3.08;100.00;102848.41;4949688;28;20055;-80
2023/01/27 05:36:25;;;;;;;1.35;1.15;;;;;;;3.07;100.00;102857.00;4928171;28;20488;-81
2023/01/27 05:38:54;;;;;;;2.75;1.30;;;;;;;3.06;100.00;102851.69;4953591;28;20505;-80
2023/01/27 05:41:22;;;;;;;2.65;1.20;;;;;;;3.05;100.00;102862.91;4935568;28;21921;-78
2023/01/27 05:43:54;;;;;;;3.38;1.20;;;;;;;3.05;100.00;102852.50;4964332;28;20055;-78
2023/01/27 05:46:25;;;;;;;2.83;1.10;;;;;;;3.05;100.00;102853.38;4946568;28;20813;-80
2023/01/27 05:48:56;;;;;;;1.73;0.98;;;;;;;3.05;100.00;102845.56;4937670;29;20051;-80
2023/01/27 05:51:25;;;;;;;2.58;1.40;;;;;;;3.05;100.00;102847.28;4910532;29;20047;-80
2023/01/27 05:53:54;;;;;;;1.42;1.33;;;;;;;3.05;100.00;102839.47;4929936;28;20051;-78
2023/01/27 05:56:22;;;;;;;2.92;1.15;;;;;;;3.04;100.00;102835.03;4945338;29;20055;-79
2023/01/27 05:58:50;;;;;;;1.67;1.20;;;;;;;3.01;100.00;102840.97;4923794;28;20053;-79
2023/01/27 06:01:19;;;;;;;1.20;1.05;;;;;;;3.00;100.00;102839.16;4945044;28;20046;-79
2023/01/27 06:03:47;;;;;;;2.80;1.00;;;;;;;2.97;100.00;102828.56;4928332;29;20113;-79
2023/01/27 06:06:17;;;;;;;1.38;1.25;;;;;;;2.94;100.00;102836.16;4912523;29;20035;-79
2023/01/27 06:08:46;;;;;;;0.97;0.93;;;;;;;2.92;100.00;102832.53;4938755;29;20883;-79
2023/01/27 06:11:16;;;;;;;3.80;1.10;;;;;;;2.90;100.00;102842.84;4919426;28;20051;-77
2023/01/27 06:13:44;;;;;;;1.88;1.45;;;;;;;2.88;100.00;102848.78;4922624;28;20517;-79
2023/01/27 06:16:14;;;;;;;1.70;1.10;;;;;;;2.86;100.00;102858.19;4937376;29;20054;-78
2023/01/27 06:18:41;;;;;;;1.73;1.10;;;;;;;2.85;100.00;102848.56;4947923;29;20775;-79
2023/01/27 06:21:11;;;;;;;3.13;1.30;;;;;;;2.83;100.00;102853.66;4937964;29;20503;-79
2023/01/27 06:23:39;;;;;;;5.00;1.60;;;;;;;2.82;100.00;102859.69;4916138;28;20075;-79
2023/01/27 06:26:15;;;;;;;2.95;1.20;;;;;;;2.81;100.00;102872.59;4936647;28;20302;-79
2023/01/27 06:28:43;;;;;;;1.88;1.10;;;;;;;2.80;100.00;102887.31;4916219;28;20042;-79
2023/01/27 06:31:13;;;;;;;2.60;1.38;;;;;;;2.80;100.00;102886.41;4938322;29;20052;-80
2023/01/27 06:33:41;;;;;;;4.03;1.10;;;;;;;2.80;100.00;102887.31;4926986;28;20063;-78
2023/01/27 06:36:11;;;;;;;4.32;1.45;;;;;;;2.79;100.00;102893.31;4938252;29;20052;-78
2023/01/27 06:38:39;;;;;;;4.60;1.20;;;;;;;2.79;100.00;102902.84;4896450;28;20497;-78
2023/01/27 06:41:07;;;;;;;3.55;1.13;;;;;;;2.81;100.00;102903.84;4924319;28;20039;-78
2023/01/27 06:43:36;;;;;;;6.78;1.70;;;;;;;2.79;100.00;102892.41;4905724;28;20484;-79
2023/01/27 06:46:03;;;;;;;5.53;1.50;;;;;;;2.79;100.00;102906.34;4929409;28;20062;-79
2023/01/27 06:48:33;;;;;;;5.63;1.80;;;;;;;2.79;100.00;102910.66;4936358;29;20054;-79
2023/01/27 06:51:01;;;;;;;5.15;1.40;;;;;;;2.80;100.00;102915.97;4925431;29;20062;-77
2023/01/27 06:53:30;;;;;;;8.30;2.05;;;;;;;2.78;100.00;102911.44;4908650;28;20066;-77
2023/01/27 06:55:59;;;;;;;6.55;1.48;;;;;;;2.78;100.00;102914.03;4916586;28;20386;-78
2023/01/27 06:58:27;;;;;;;6.18;1.42;;;;;;;2.77;100.00;102910.53;4911497;28;20035;-77
2023/01/27 07:00:55;;;;;;;2.33;1.33;;;;;;;2.78;100.00;102911.44;4915328;28;20054;-78
2023/01/27 07:03:23;;;;;;;5.35;1.65;;;;;;;2.77;100.00;102907.03;4919556;28;20054;-78
2023/01/27 07:05:52;;;;;;;6.00;2.47;;;;;;;2.76;100.00;102908.75;4923031;29;20416;-78
2023/01/27 07:08:19;;;;;;;5.22;1.80;;;;;;;2.75;100.00;102906.03;4909518;29;20055;-78
2023/01/27 07:10:46;;;;;;;3.05;1.80;;;;;;;2.76;100.00;102911.34;4889406;28;20066;-78
2023/01/27 07:13:14;;;;;;;2.30;1.40;;;;;;;2.75;100.00;102916.44;4891518;29;20052;-79
2023/01/27 07:15:42;;;;;;;4.85;1.77;;;;;;;2.73;100.00;102905.94;4888095;29;20059;-78
2023/01/27 07:18:10;;;;;;;5.88;1.83;;;;;;;2.73;100.00;102914.63;4931870;29;20059;-79
2023/01/27 07:20:39;;;;;;;4.10;1.63;;;;;;;2.72;100.00;102918.03;4911487;29;20067;-78
2023/01/27 07:23:08;;;;;;;4.60;1.85;;;;;;;2.72;100.00;102918.03;4921161;29;20051;-78
2023/01/27 07:25:36;;;;;;;9.63;2.22;;;;;;;2.71;100.00;102929.25;4885161;29;20055;-78
2023/01/27 07:28:04;;;;;;;5.43;1.67;;;;;;;2.69;100.00;102923.03;4902127;28;20051;-77
2023/01/27 07:30:36;;;;;;;10.43;2.28;;;;;;;2.67;100.00;102929.84;4898803;29;20062;-78
2023/01/27 07:33:05;;;;;;;5.93;1.50;;;;;;;2.66;100.00;102930.63;4913036;29;20381;-78
2023/01/27 07:35:35;;;;;;;7.35;2.00;;;;;;;2.66;100.00;102940.13;4921274;29;21745;-78
2023/01/27 07:38:05;;;;;;;5.47;1.92;;;;;;;2.63;100.00;102946.06;4932448;29;20057;-78
2023/01/27 07:40:34;;;;;;;6.53;1.38;;;;;;;2.62;100.00;102952.03;4884890;29;20043;-77
2023/01/27 07:43:02;;;;;;;3.60;2.10;;;;;;;2.62;100.00;102952.03;4917059;29;20051;-78
2023/01/27 07:45:33;;;;;;;9.27;2.22;;;;;;;2.62;100.00;102962.44;4915705;28;20051;-79
2023/01/27 07:48:03;;;;;;;5.80;1.85;;;;;;;2.62;100.00;102959.84;4924138;28;20043;-78
2023/01/27 07:50:31;;;;;;;4.00;1.55;;;;;;;2.63;100.00;102965.97;4950803;28;20049;-77
2023/01/27 07:53:01;;;;;;;5.65;1.85;;;;;;;2.61;100.00;102963.25;4929581;29;20063;-78
2023/01/27 07:55:29;;;;;;;6.40;2.00;;;;;;;2.63;100.00;102963.38;4933467;28;20047;-78
2023/01/27 07:57:56;;;;;;;6.25;1.70;;;;;;;2.63;100.00;102955.56;4944917;28;20047;-77
2023/01/27 08:00:24;;;;;;;2.65;1.50;;;;;;;2.63;100.00;102956.47;4953534;28;20091;-78
2023/01/27 08:02:53;;;;;;;7.93;2.22;;;;;;;2.62;100.00;102964.16;4905921;28;20058;-78
2023/01/27 08:05:21;;;;;;;4.90;1.92;;;;;;;2.61;100.00;102970.16;4947390;28;20050;-78
2023/01/27 08:07:50;;;;;;;3.58;1.90;;;;;;;2.61;100.00;102968.47;4944475;28;20498;-78
2023/01/27 08:10:18;;;;;;;6.07;2.05;;;;;;;2.62;100.00;102964.16;4929249;28;20082;-79
2023/01/27 08:12:46;;;;;;;5.45;1.80;;;;;;;2.60;100.00;102966.66;4941950;28;20057;-79
2023/01/27 08:15:14;;;;;;;4.32;1.90;;;;;;;2.62;100.00;102962.44;4930189;28;20051;-77
2023/01/27 08:17:55;;;;;;;2.60;1.83;;;;;;;2.64;100.00;102963.44;4906735;28;20046;-77
2023/01/27 08:20:24;;;;;;;4.25;2.00;;;;;;;2.64;100.00;102955.66;4943109;28;20051;-78
2023/01/27 08:22:52;;;;;;;11.88;2.38;;;;;;;2.64;100.00;102962.56;4952693;28;20394;-78
2023/01/27 08:25:20;;;;;;;3.63;1.77;;;;;;;2.64;100.00;102972.97;4957286;28;20043;-77
2023/01/27 08:27:52;;;;;;;2.95;1.75;;;;;;;2.65;100.00;102980.91;4926072;28;20051;-78
2023/01/27 08:30:20;;;;;;;3.13;1.92;;;;;;;2.63;100.00;102974.69;4950142;28;20496;-78
2023/01/27 08:32:47;;;;;;;3.92;2.15;;;;;;;2.64;100.00;102986.00;4946820;28;20055;-77
2023/01/27 08:35:15;;;;;;;3.42;1.70;;;;;;;2.65;100.00;102987.81;4950726;28;20786;-77
2023/01/27 08:37:42;;;;;;;3.70;2.00;;;;;;;2.65;100.00;102995.63;4933116;28;20055;-78
2023/01/27 08:40:10;;;;;;;6.15;1.98;;;;;;;2.64;100.00;102994.69;4923910;28;20519;-77
2023/01/27 08:42:38;;;;;;;4.30;2.15;;;;;;;2.67;100.00;102991.44;4904488;28;20054;-78
2023/01/27 08:45:07;;;;;;;5.07;2.20;;;;;;;2.70;100.00;102987.34;4933329;28;20051;-77
2023/01/27 08:47:34;;;;;;;6.50;2.28;;;;;;;2.73;100.00;102992.72;4930232;28;20074;-77
2023/01/27 08:50:02;;;;;;;5.47;2.28;;;;;;;2.76;100.00;102996.34;4922815;28;20057;-77
2023/01/27 08:52:30;;;;;;;5.38;2.08;;;;;;;2.78;100.00;102993.06;4944374;28;20049;-77
2023/01/27 08:54:57;;;;;;;5.72;2.30;;;;;;;2.83;100.00;102995.97;4913149;28;20051;-78
2023/01/27 08:57:25;;;;;;;5.63;2.08;;;;;;;2.84;100.00;102997.81;4920770;28;20049;-77
2023/01/27 08:59:52;;;;;;;7.53;2.22;;;;;;;2.85;100.00;103005.69;4946989;28;20392;-77
2023/01/27 09:02:21;;;;;;;3.20;1.92;;;;;;;2.89;100.00;103010.34;4923425;28;20050;-77
2023/01/27 09:04:48;;;;;;;2.75;2.00;;;;;;;2.91;100.00;103011.34;4917881;28;20422;-77
2023/01/27 09:07:16;;;;;;;6.32;2.05;;;;;;;2.93;100.00;103003.66;4964952;28;20038;-78
2023/01/27 09:09:57;;;;;;;7.13;2.00;;;;;;;2.95;100.00;103007.25;4938133;28;20937;-77
2023/01/27 09:12:44;;;;;;;3.50;2.00;;;;;;;2.94;100.00;103015.84;4901679;28;20504;-79
2023/01/27 09:15:13;;;;;;;5.28;1.95;;;;;;;2.96;100.00;103014.25;4948050;28;20047;-77
2023/01/27 09:17:41;;;;;;;4.10;2.10;;;;;;;2.96;100.00;103016.88;4919210;28;20062;-77
2023/01/27 09:20:09;;;;;;;2.78;1.90;;;;;;;2.97;100.00;103012.53;4917100;28;20055;-77
2023/01/27 09:22:39;;;;;;;4.15;1.75;;;;;;;2.98;100.00;103028.28;4946238;28;20054;-77
2023/01/27 09:25:10;;;;;;;7.25;2.30;;;;;;;2.99;100.00;103019.69;4931538;28;20046;-77
2023/01/27 09:27:38;;;;;;;4.55;2.00;;;;;;;3.01;100.00;103023.31;4962257;28;20046;-77
2023/01/27 09:30:08;;;;;;;7.10;2.70;;;;;;;3.01;100.00;103022.41;4963224;28;20054;-77
2023/01/27 09:32:37;;;;;;;2.60;1.85;;;;;;;3.02;100.00;103032.91;4947896;28;20058;-77
2023/01/27 09:35:05;;;;;;;4.38;1.83;;;;;;;3.00;100.00;103029.28;4963031;28;20059;-77
2023/01/27 09:37:38;;;;;;;4.15;2.00;;;;;;;3.02;100.00;103024.19;4952758;28;20508;-77
2023/01/27 09:40:16;;;;;;;3.75;2.10;;;;;;;3.00;100.00;103025.78;4949402;28;20456;-77
2023/01/27 09:42:46;;;;;;;4.22;2.10;;;;;;;2.99;100.00;103027.50;4954338;28;20039;-77
2023/01/27 09:45:22;;;;;;;5.00;2.53;;;;;;;2.99;100.00;103019.69;4947141;28;20372;-77
2023/01/27 09:47:55;;;;;;;2.92;2.40;;;;;;;3.01;100.00;103035.44;4955510;28;20050;-77
2023/01/27 09:50:29;;;;;;;2.45;2.25;;;;;;;3.00;100.00;103024.09;4956778;28;20038;-77
2023/01/27 09:53:15;;;;;;;6.28;2.42;;;;;;;3.01;100.00;103022.41;4942545;28;20047;-79
2023/01/27 09:55:55;;;;;;;3.72;2.65;;;;;;;3.02;100.00;103029.41;4899306;28;20058;-77
2023/01/27 09:59:00;;;;;;;6.45;2.53;;;;;;;3.03;100.00;103026.91;4946479;28;20046;-79
2023/01/27 10:01:46;;;;;;;4.45;2.17;;;;;;;3.03;100.00;103026.91;4954758;28;20074;-77
2023/01/27 10:04:32;;;;;;;3.80;2.42;;;;;;;3.03;100.00;103024.31;4958568;28;20527;-77
2023/01/27 10:07:09;;;;;;;3.28;2.67;;;;;;;3.03;100.00;103032.13;4937936;28;20778;-77
2023/01/27 10:09:57;;;;;;;3.85;2.33;;;;;;;3.01;100.00;103033.72;4939608;28;20040;-77
2023/01/27 10:12:41;;;;;;;5.43;2.20;;;;;;;2.99;100.00;103027.50;4910117;28;20054;-77
2023/01/27 10:15:09;;;;;;;3.30;1.90;;;;;;;2.98;100.00;103032.59;4947037;28;20046;-78
2023/01/27 10:17:45;;;;;;;3.47;2.60;;;;;;;2.96;100.00;103031.59;4951395;28;20077;-77
2023/01/27 10:20:22;;;;;;;3.42;2.45;;;;;;;2.90;100.00;103032.97;4932536;28;20055;-78
2023/01/27 10:23:11;;;;;;;3.58;2.55;;;;;;;2.89;100.00;103027.66;4945751;28;20054;-78
2023/01/27 10:25:55;;;;;;;2.65;2.45;;;;;;;2.87;100.00;103032.78;4952557;28;20050;-78
2023/01/27 10:28:27;;;;;;;2.90;2.30;;;;;;;2.89;100.00;103033.78;4914580;29;20043;-78
2023/01/27 10:31:11;;;;;;;3.33;2.80;;;;;;;2.91;100.00;103037.41;4947887;28;20081;-78
2023/01/27 10:33:48;;;;;;;2.78;2.45;;;;;;;2.92;100.00;103033.09;4963849;28;20485;-78
2023/01/27 10:36:26;;;;;;;2.95;2.70;;;;;;;2.92;100.00;103030.47;4944991;28;20487;-78
2023/01/27 10:39:19;;;;;;;2.90;2.70;;;;;;;2.92;100.00;103035.69;4964955;28;20047;-78
2023/01/27 10:41:59;;;;;;;3.05;2.75;;;;;;;2.91;100.00;103037.41;4941580;28;20047;-78
2023/01/27 10:44:49;;;;;;;3.67;3.20;;;;;;;2.87;100.00;103039.66;4955057;28;20523;-78
2023/01/27 10:47:28;;;;;;;2.63;2.45;;;;;;;2.87;100.00;103044.88;4951003;28;20448;-78
2023/01/27 10:50:00;;;;;;;3.13;2.92;;;;;;;2.86;100.00;103040.47;4967924;28;20817;-79
2023/01/27 10:52:38;;;;;;;3.33;3.03;;;;;;;2.82;100.00;103033.25;4945251;28;20062;-78
2023/01/27 10:55:27;;;;;;;2.63;2.40;;;;;;;2.78;100.00;103029.53;4961470;28;20054;-78
2023/01/27 10:58:19;;;;;;;2.70;2.50;;;;;;;2.80;100.00;103027.94;4914532;28;20067;-78
2023/01/27 11:00:49;;;;;;;3.08;2.88;;;;;;;2.82;100.00;103022.84;4956631;28;20055;-78
2023/01/27 11:03:46;;;;;;;4.07;3.10;;;;;;;2.80;100.00;103021.78;4963835;28;20062;-84
2023/01/27 11:06:27;;;;;;;3.40;3.20;;;;;;;2.82;100.00;103012.41;4952864;28;20058;-85
2023/01/27 11:09:11;;;;;;;5.75;3.33;;;;;;;2.85;100.00;103010.00;4948051;28;20066;-86
2023/01/27 11:11:45;;;;;;;4.00;3.00;;;;;;;2.85;100.00;103017.81;4961510;28;20054;-86
2023/01/27 11:14:15;;;;;;;4.85;3.03;;;;;;;2.84;100.00;103018.63;4921073;28;20050;-83
2023/01/27 11:16:48;;;;;;;;;;;;;;;2.84;100.00;103008.22;4955062;28;20055;-86
2023/01/27 11:19:48;;;;;;;3.05;2.63;;;;;;;2.85;100.00;103010.91;4957178;28;19925;-85
2023/01/27 11:22:20;;;;;;;2.97;2.78;;;;;;;2.85;100.00;103015.22;4948959;28;20054;-86
2023/01/27 11:25:11;;;;;;;2.45;2.35;;;;;;;2.89;100.00;103006.81;4951164;28;20062;-85
2023/01/27 11:27:52;;;;;;;2.70;2.50;;;;;;;2.91;100.00;103007.81;4911657;28;20039;-86
2023/01/27 11:30:31;;;;;;;3.00;2.72;;;;;;;2.91;100.00;103013.97;4944611;28;20043;-87
2023/01/27 11:33:23;;;;;;;2.78;2.58;;;;;;;2.92;100.00;103020.06;4946374;28;20055;-88
2023/01/27 11:35:52;;;;;;;2.78;2.58;;;;;;;2.89;100.00;103012.03;4938716;28;20047;-87
2023/01/27 11:38:21;;;;;;;3.42;2.83;;;;;;;2.90;100.00;103013.84;4933998;28;20039;-86
2023/01/27 11:40:51;;;;;;;3.70;2.58;;;;;;;2.89;100.00;103019.84;4936897;28;20041;-87
2023/01/27 11:43:24;;;;;;;2.38;2.22;;;;;;;2.87;100.00;103009.34;4943386;28;20535;-83
2023/01/27 11:45:59;;;;;;;2.83;2.63;;;;;;;2.86;100.00;103007.50;4937448;28;20421;-83
2023/01/27 11:48:50;;;;;;;2.72;2.53;;;;;;;2.87;100.00;103011.94;4944599;28;20055;-85
2023/01/27 11:51:23;;;;;;;2.22;2.13;;;;;;;2.87;100.00;102998.91;4948356;28;20050;-84
2023/01/27 11:54:11;;;;;;;2.30;2.20;;;;;;;2.89;100.00;102999.00;4947757;28;20043;-84
2023/01/27 11:56:42;;;;;;;2.17;2.08;;;;;;;2.91;100.00;102995.72;4931919;28;20039;-86
2023/01/27 11:59:17;;;;;;;3.08;2.22;;;;;;;2.93;100.00;102995.84;4957593;28;20568;-83
2023/01/27 12:01:50;;;;;;;4.30;2.53;;;;;;;2.96;100.00;102984.72;4949913;28;20047;-85
2023/01/27 12:04:45;;;;;;;2.78;2.55;;;;;;;3.01;100.00;102984.22;4938439;28;20050;-84
2023/01/27 12:07:37;;;;;;;2.40;2.30;;;;;;;3.04;100.00;102987.03;4952477;28;20488;-84
2023/01/27 12:10:26;;;;;;;2.05;1.95;;;;;;;3.03;100.00;102980.03;4961620;28;20051;-83
2023/01/27 12:12:56;;;;;;;2.47;2.28;;;;;;;3.06;100.00;102985.47;4947940;28;20043;-81
2023/01/27 12:15:27;;;;;;;2.13;1.90;;;;;;;3.08;100.00;102985.53;4941967;28;20047;-87
2023/01/27 12:17:59;;;;;;;2.30;2.10;;;;;;;3.09;100.00;102980.44;4957943;28;20055;-83
2023/01/27 12:20:43;;;;;;;1.80;1.70;;;;;;;3.11;100.00;102983.16;4962834;28;20043;-82
2023/01/27 12:23:46;;;;;;;2.58;1.90;;;;;;;3.12;100.00;102984.97;4957900;28;20051;-83